Time;durP1;ratioP1;P1;durP2;ratioP2;P2;SDS_P1;SDS_P2;PMS_P1;PMS_P2;Temp;Humidity;BMP_temperature;BMP_pressure;BME280_temperature;BME280_humidity;BME280_pressure;Samples;Min_cycle;Max_cycle;Signal;HPM_P1;HPM_P2
2023/10/02 00:01:53;;;;;;;16.92;9.85;;;12.90;99.90;;;;;;5079518;28;20208;-88
2023/10/02 00:04:24;;;;;;;18.35;9.45;;;12.80;99.90;;;;;;5077164;28;20231;-87
2023/10/02 00:07:05;;;;;;;18.80;9.57;;;12.80;99.90;;;;;;5077907;28;20945;-88
2023/10/02 00:09:34;;;;;;;17.98;9.63;;;12.70;99.90;;;;;;5084920;28;20206;-88
2023/10/02 00:12:11;;;;;;;16.65;8.60;;;12.60;99.90;;;;;;5055142;28;20634;-87
2023/10/02 00:14:38;;;;;;;18.55;9.25;;;12.60;99.90;;;;;;5087382;28;20188;-88
2023/10/02 00:17:07;;;;;;;17.42;9.52;;;12.60;99.90;;;;;;5065646;28;20326;-87
2023/10/02 00:19:38;;;;;;;20.88;9.77;;;12.70;99.90;;;;;;5074421;28;20283;-87
2023/10/02 00:22:08;;;;;;;15.27;8.68;;;12.60;99.90;;;;;;5079059;28;20215;-88
2023/10/02 00:24:39;;;;;;;16.45;9.20;;;12.50;99.90;;;;;;5078835;28;20244;-87
2023/10/02 00:27:07;;;;;;;15.93;8.88;;;12.30;99.90;;;;;;5082250;28;20619;-88
2023/10/02 00:29:34;;;;;;;18.27;9.40;;;12.20;99.90;;;;;;5073107;28;20715;-87
2023/10/02 00:32:10;;;;;;;17.35;9.68;;;12.20;99.90;;;;;;5074417;28;20228;-87
2023/10/02 00:34:38;;;;;;;18.08;9.90;;;12.10;99.90;;;;;;5080898;28;20196;-87
2023/10/02 00:37:12;;;;;;;19.98;10.38;;;12.10;99.90;;;;;;5080395;28;20296;-87
2023/10/02 00:39:47;;;;;;;19.33;9.90;;;12.00;99.90;;;;;;5085708;28;20204;-88
2023/10/02 00:42:24;;;;;;;18.15;9.32;;;12.00;99.90;;;;;;5081203;28;20204;-87
2023/10/02 00:44:58;;;;;;;18.35;9.23;;;12.00;99.90;;;;;;5081920;28;20219;-87
2023/10/02 00:47:38;;;;;;;17.63;9.35;;;12.00;99.90;;;;;;5072822;28;20287;-88
2023/10/02 00:50:11;;;;;;;18.48;8.95;;;12.00;99.90;;;;;;5077457;28;20196;-88
2023/10/02 00:52:40;;;;;;;20.67;9.70;;;12.20;99.90;;;;;;5083245;28;20221;-87
2023/10/02 00:55:12;;;;;;;17.63;10.07;;;12.20;99.90;;;;;;5071330;28;20304;-87
2023/10/02 00:57:41;;;;;;;18.92;9.45;;;12.20;99.90;;;;;;5073939;28;20204;-88
2023/10/02 01:00:17;;;;;;;15.05;8.98;;;12.10;99.90;;;;;;5078896;28;20207;-87
2023/10/02 01:02:46;;;;;;;18.88;9.55;;;12.10;99.90;;;;;;5076948;28;20192;-87
2023/10/02 01:05:16;;;;;;;17.58;8.70;;;12.00;99.90;;;;;;5080771;28;20201;-87
2023/10/02 01:07:44;;;;;;;17.45;9.85;;;11.90;99.90;;;;;;5080473;28;20205;-87
2023/10/02 01:10:18;;;;;;;17.35;9.43;;;11.90;99.90;;;;;;5081111;28;20301;-87
2023/10/02 01:12:50;;;;;;;20.40;10.35;;;11.90;99.90;;;;;;5083482;28;20229;-87
2023/10/02 01:15:20;;;;;;;17.42;9.23;;;11.80;99.90;;;;;;5080698;28;20207;-87
2023/10/02 01:17:49;;;;;;;18.75;9.75;;;11.80;99.90;;;;;;5074668;28;20199;-87
2023/10/02 01:20:33;;;;;;;17.20;8.98;;;11.80;99.90;;;;;;5074930;28;20196;-88
2023/10/02 01:23:16;;;;;;;19.08;10.05;;;11.80;99.90;;;;;;5082345;28;20228;-88
2023/10/02 01:25:46;;;;;;;18.55;9.10;;;11.70;99.90;;;;;;5085648;28;20230;-87
2023/10/02 01:28:15;;;;;;;16.13;8.63;;;11.70;99.90;;;;;;5086183;28;20221;-88
2023/10/02 01:30:44;;;;;;;17.60;9.05;;;11.70;99.90;;;;;;5081134;28;20208;-87
2023/10/02 01:33:14;;;;;;;19.98;9.63;;;11.70;99.90;;;;;;5081865;28;20634;-87
2023/10/02 01:35:46;;;;;;;17.83;9.40;;;11.60;99.90;;;;;;5077929;28;20221;-87
2023/10/02 01:38:14;;;;;;;16.70;9.27;;;11.60;99.90;;;;;;5084028;28;20722;-87
2023/10/02 01:40:48;;;;;;;17.33;9.70;;;11.50;99.90;;;;;;5081488;28;20201;-87
2023/10/02 01:43:16;;;;;;;20.08;9.85;;;11.50;99.90;;;;;;5081345;28;20232;-87
2023/10/02 01:45:44;;;;;;;15.90;9.20;;;11.50;99.90;;;;;;5090918;28;20207;-87
2023/10/02 01:48:13;;;;;;;18.80;9.40;;;11.50;99.90;;;;;;5083427;28;20581;-87
2023/10/02 01:50:43;;;;;;;18.80;9.70;;;11.50;99.90;;;;;;5074739;28;20227;-87
2023/10/02 01:53:29;;;;;;;17.10;9.20;;;11.50;99.90;;;;;;5085119;28;20570;-87
2023/10/02 01:56:10;;;;;;;18.20;9.70;;;11.50;99.90;;;;;;5081211;28;20248;-88
2023/10/02 01:58:39;;;;;;;18.40;9.82;;;11.50;99.90;;;;;;5088133;28;20196;-87
2023/10/02 02:01:09;;;;;;;22.77;10.65;;;11.50;99.90;;;;;;5073565;28;20266;-87
2023/10/02 02:03:37;;;;;;;16.40;8.95;;;11.40;99.90;;;;;;5093195;28;20333;-87
2023/10/02 02:06:08;;;;;;;16.17;9.10;;;11.40;99.90;;;;;;5085877;28;20196;-87
2023/10/02 02:08:36;;;;;;;16.25;9.23;;;11.30;99.90;;;;;;5081654;28;20197;-87
2023/10/02 02:11:18;;;;;;;17.73;9.30;;;11.30;99.90;;;;;;5082590;28;20197;-87
2023/10/02 02:13:47;;;;;;;18.98;9.10;;;11.30;99.90;;;;;;5087133;28;20267;-87
2023/10/02 02:16:21;;;;;;;16.90;9.30;;;11.40;99.90;;;;;;5083043;28;20744;-87
2023/10/02 02:18:50;;;;;;;18.48;9.68;;;11.40;99.90;;;;;;5081440;28;20223;-87
2023/10/02 02:21:18;;;;;;;15.77;9.23;;;11.30;99.90;;;;;;5081326;28;20613;-87
2023/10/02 02:23:46;;;;;;;15.68;9.07;;;11.30;99.90;;;;;;5079911;28;20627;-87
2023/10/02 02:26:21;;;;;;;17.95;9.52;;;11.30;99.90;;;;;;5091265;28;20376;-87
2023/10/02 02:28:52;;;;;;;16.35;8.98;;;11.30;99.90;;;;;;5082547;28;20208;-87
2023/10/02 02:31:32;;;;;;;17.10;9.43;;;11.20;99.90;;;;;;5079289;28;20201;-87
2023/10/02 02:34:01;;;;;;;16.63;9.23;;;11.20;99.90;;;;;;5081836;28;20208;-87
2023/10/02 02:36:34;;;;;;;16.90;8.75;;;11.20;99.90;;;;;;5083991;28;20546;-87
2023/10/02 02:39:16;;;;;;;17.90;9.77;;;11.20;99.90;;;;;;5085058;28;20196;-87
2023/10/02 02:41:46;;;;;;;19.08;9.43;;;11.20;99.90;;;;;;5085349;28;20274;-87
2023/10/02 02:47:00;;;;;;;18.17;9.15;;;11.10;99.90;;;;;;5088922;28;20287;-88
2023/10/02 02:49:29;;;;;;;18.70;9.85;;;11.10;99.90;;;;;;5092333;28;20243;-87
2023/10/02 02:51:56;;;;;;;16.73;9.10;;;11.10;99.90;;;;;;5087634;28;20230;-87
2023/10/02 02:54:28;;;;;;;15.70;8.85;;;11.00;99.90;;;;;;5086735;28;20213;-87
2023/10/02 02:57:00;;;;;;;18.95;10.13;;;11.00;99.90;;;;;;5077817;28;20644;-88
2023/10/02 02:59:28;;;;;;;21.58;9.85;;;11.00;99.90;;;;;;5083358;28;20603;-87
2023/10/02 03:02:08;;;;;;;18.55;9.23;;;11.00;99.90;;;;;;5085976;28;20197;-86
2023/10/02 03:04:39;;;;;;;17.20;10.27;;;11.00;99.90;;;;;;5072277;28;20193;-87
2023/10/02 03:07:18;;;;;;;16.83;9.68;;;11.00;99.90;;;;;;5077598;28;20666;-87
2023/10/02 03:09:45;;;;;;;21.48;10.05;;;11.00;99.90;;;;;;5085103;28;20221;-88
2023/10/02 03:12:15;;;;;;;18.35;9.43;;;10.90;99.90;;;;;;5076829;28;20198;-87
2023/10/02 03:14:43;;;;;;;19.77;10.05;;;10.90;99.90;;;;;;5082146;28;20223;-87
2023/10/02 03:19:52;;;;;;;20.95;10.43;;;10.90;99.90;;;;;;5080259;28;20224;-87
2023/10/02 03:22:20;;;;;;;21.17;10.32;;;10.90;99.90;;;;;;5075763;28;20204;-87
2023/10/02 03:24:48;;;;;;;18.30;9.70;;;10.80;99.90;;;;;;5082535;28;20631;-87
2023/10/02 03:27:16;;;;;;;18.02;9.40;;;10.80;99.90;;;;;;5078433;28;20201;-87
2023/10/02 03:29:45;;;;;;;18.13;9.55;;;10.80;99.90;;;;;;5087939;28;20207;-87
2023/10/02 03:32:12;;;;;;;20.65;10.07;;;10.80;99.90;;;;;;5072173;28;20223;-87
2023/10/02 03:34:48;;;;;;;17.77;9.57;;;10.80;99.90;;;;;;5083608;28;20213;-87
2023/10/02 03:37:20;;;;;;;20.35;10.02;;;10.80;99.90;;;;;;5084462;28;20200;-87
2023/10/02 03:39:59;;;;;;;21.33;10.10;;;10.80;99.90;;;;;;5083148;28;20197;-87
2023/10/02 03:42:30;;;;;;;18.60;9.90;;;10.70;99.90;;;;;;5075048;28;20204;-87
2023/10/02 03:44:58;;;;;;;18.42;9.70;;;10.70;99.90;;;;;;5078113;28;20291;-87
2023/10/02 03:47:27;;;;;;;20.30;10.43;;;10.80;99.90;;;;;;5078294;28;20196;-87
2023/10/02 03:50:00;;;;;;;17.90;9.82;;;10.80;99.90;;;;;;5078810;28;20283;-88
2023/10/02 03:52:28;;;;;;;18.20;9.48;;;10.80;99.90;;;;;;5077044;28;20318;-87
2023/10/02 03:54:56;;;;;;;19.08;9.95;;;10.80;99.90;;;;;;5074203;28;20686;-87
2023/10/02 04:00:18;;;;;;;19.30;9.65;;;10.80;99.90;;;;;;5063593;28;20197;-87
2023/10/02 04:02:46;;;;;;;20.52;10.30;;;10.80;99.90;;;;;;5088107;28;20196;-87
2023/10/02 04:05:30;;;;;;;18.25;10.23;;;10.80;99.90;;;;;;5090092;28;20578;-87
2023/10/02 04:08:13;;;;;;;17.83;9.80;;;10.70;99.90;;;;;;5076341;28;20243;-87
2023/10/02 04:13:31;;;;;;;20.30;10.00;;;10.90;99.90;;;;;;5081644;28;20221;-87
2023/10/02 04:18:47;;;;;;;18.65;9.38;;;10.80;99.90;;;;;;5083335;28;20207;-87
2023/10/02 04:21:13;;;;;;;18.98;9.57;;;10.60;99.90;;;;;;5096656;28;20189;-87
2023/10/02 04:23:42;;;;;;;20.13;10.20;;;10.60;99.90;;;;;;5079024;28;20208;-88
2023/10/02 04:26:19;;;;;;;17.15;9.50;;;10.60;99.90;;;;;;5081512;28;20207;-87
2023/10/02 04:28:54;;;;;;;21.52;10.00;;;10.60;99.90;;;;;;5073441;28;20201;-89
2023/10/02 04:31:23;;;;;;;18.80;10.00;;;10.60;99.90;;;;;;5081532;28;20612;-90
2023/10/02 04:34:15;;;;;;;18.65;9.82;;;10.50;99.90;;;;;;5079685;28;20236;-90
2023/10/02 04:36:41;;;;;;;19.75;10.13;;;10.40;99.90;;;;;;5078443;28;20290;-90
2023/10/02 04:39:51;;;;;;;19.50;10.13;;;10.40;99.90;;;;;;5079106;28;20204;-88
2023/10/02 04:42:11;;;;;;;20.88;9.70;;;10.30;99.90;;;;;;5080042;28;20228;-89
2023/10/02 04:44:44;;;;;;;20.98;10.50;;;10.30;99.90;;;;;;5081351;28;20197;-87
2023/10/02 04:47:17;;;;;;;24.52;10.57;;;10.30;99.90;;;;;;5081782;28;20211;-88
2023/10/02 04:50:34;;;;;;;23.00;10.35;;;10.30;99.90;;;;;;5079736;28;20255;-88
2023/10/02 04:55:22;;;;;;;20.20;10.00;;;10.20;99.90;;;;;;5077157;28;20201;-88
2023/10/02 04:57:52;;;;;;;22.00;10.68;;;10.20;99.90;;;;;;5082219;28;20723;-88
2023/10/02 05:00:32;;;;;;;20.95;10.07;;;10.20;99.90;;;;;;5079961;28;20235;-88
2023/10/02 05:03:09;;;;;;;17.48;9.82;;;10.10;99.90;;;;;;5088070;28;20224;-88
2023/10/02 05:05:42;;;;;;;20.33;10.32;;;10.10;99.90;;;;;;5075381;28;20607;-88
2023/10/02 05:11:26;;;;;;;21.60;10.20;;;10.10;99.90;;;;;;5090531;28;20688;-88
2023/10/02 05:13:59;;;;;;;22.38;10.68;;;10.10;99.90;;;;;;5087394;28;20225;-88
2023/10/02 05:16:32;;;;;;;18.25;9.55;;;10.10;99.90;;;;;;5075504;28;20278;-87
2023/10/02 05:19:01;;;;;;;20.73;10.63;;;10.10;99.90;;;;;;5087372;28;20204;-88
2023/10/02 05:21:38;;;;;;;21.80;10.57;;;10.00;99.90;;;;;;5089551;28;20207;-88
2023/10/02 05:24:06;;;;;;;19.77;10.52;;;10.00;99.90;;;;;;5079861;28;20212;-88
2023/10/02 05:26:36;;;;;;;21.70;11.10;;;10.00;99.90;;;;;;5089043;28;20258;-88
2023/10/02 05:29:08;;;;;;;24.35;10.32;;;10.00;99.90;;;;;;5082420;28;20232;-88
2023/10/02 05:31:35;;;;;;;21.38;11.05;;;10.00;99.90;;;;;;5087627;28;20193;-88
2023/10/02 05:34:09;;;;;;;20.30;10.00;;;10.10;99.90;;;;;;5075706;28;20700;-88
2023/10/02 05:36:36;;;;;;;21.23;10.35;;;10.10;99.90;;;;;;5079908;28;20201;-88
2023/10/02 05:39:28;;;;;;;20.95;10.75;;;10.10;99.90;;;;;;5081678;28;20198;-88
2023/10/02 05:42:05;;;;;;;19.60;10.55;;;10.20;99.90;;;;;;5085794;28;20298;-88
2023/10/02 05:44:33;;;;;;;21.05;10.10;;;10.30;99.90;;;;;;5094756;28;20197;-88
2023/10/02 05:47:06;;;;;;;20.90;10.35;;;10.30;99.90;;;;;;5075422;28;20252;-88
2023/10/02 05:49:36;;;;;;;20.58;11.02;;;10.30;99.90;;;;;;5079858;28;20247;-88
2023/10/02 05:52:07;;;;;;;22.70;10.85;;;10.30;99.90;;;;;;5081523;28;20829;-88
2023/10/02 05:54:36;;;;;;;23.52;10.48;;;10.40;99.90;;;;;;5084001;28;20244;-89
2023/10/02 05:57:10;;;;;;;22.67;10.63;;;10.40;99.90;;;;;;5080490;28;20250;-89
2023/10/02 05:59:47;;;;;;;21.63;11.00;;;10.50;99.90;;;;;;5077863;28;20202;-89
2023/10/02 06:02:14;;;;;;;24.35;10.30;;;10.50;99.90;;;;;;5087146;28;20598;-89
2023/10/02 06:04:47;;;;;;;19.10;10.10;;;10.60;99.90;;;;;;5082971;28;20294;-89
2023/10/02 06:07:19;;;;;;;21.25;10.23;;;10.60;99.90;;;;;;5079029;28;20201;-89
2023/10/02 06:09:47;;;;;;;18.58;10.13;;;10.60;99.90;;;;;;5084839;28;20256;-89
2023/10/02 06:12:14;;;;;;;19.70;9.90;;;10.70;99.90;;;;;;5082289;28;20698;-89
2023/10/02 06:14:42;;;;;;;20.48;10.02;;;10.80;99.90;;;;;;5090063;28;20228;-88
2023/10/02 06:17:12;;;;;;;20.30;10.10;;;10.90;99.90;;;;;;5084063;28;20197;-88
2023/10/02 06:19:48;;;;;;;20.10;10.15;;;10.90;99.90;;;;;;5083890;28;20296;-88
2023/10/02 06:22:15;;;;;;;21.73;10.13;;;11.00;99.90;;;;;;5081768;28;20196;-88
2023/10/02 06:24:43;;;;;;;19.35;9.95;;;11.10;99.90;;;;;;5079318;28;20193;-89
2023/10/02 06:27:17;;;;;;;20.85;10.48;;;11.20;99.90;;;;;;5076409;28;20201;-89
2023/10/02 06:29:47;;;;;;;22.23;10.52;;;11.30;99.90;;;;;;5079137;28;20209;-88
2023/10/02 06:32:19;;;;;;;20.63;10.93;;;11.30;99.90;;;;;;5080319;28;20201;-89
2023/10/02 06:34:50;;;;;;;20.20;10.38;;;11.40;99.90;;;;;;5078881;28;20232;-89
2023/10/02 06:37:19;;;;;;;21.35;10.63;;;11.50;99.90;;;;;;5077871;28;20208;-88
2023/10/02 06:40:02;;;;;;;23.65;11.07;;;11.60;99.90;;;;;;5082318;28;20201;-89
2023/10/02 06:42:30;;;;;;;23.05;11.65;;;11.70;99.90;;;;;;5080004;28;20234;-88
2023/10/02 06:45:01;;;;;;;22.85;11.95;;;11.80;99.90;;;;;;5079881;28;20205;-88
2023/10/02 06:47:29;;;;;;;24.35;11.95;;;11.80;99.90;;;;;;5083882;28;20197;-88
2023/10/02 06:50:03;;;;;;;25.35;12.05;;;11.90;99.90;;;;;;5080620;28;20287;-89
2023/10/02 06:52:32;;;;;;;26.60;13.25;;;12.00;99.90;;;;;;5081510;28;20263;-88
2023/10/02 06:55:01;;;;;;;26.10;13.38;;;12.10;99.90;;;;;;5077128;28;20304;-88
2023/10/02 06:57:28;;;;;;;26.13;12.73;;;12.20;99.90;;;;;;5080166;28;20550;-88
2023/10/02 06:59:56;;;;;;;26.20;13.88;;;12.40;99.90;;;;;;5088676;28;20246;-88
2023/10/02 07:02:26;;;;;;;25.23;12.75;;;12.50;99.90;;;;;;5087924;28;20273;-89
2023/10/02 07:04:55;;;;;;;27.73;12.88;;;12.60;99.90;;;;;;5084527;28;20205;-89
2023/10/02 07:07:25;;;;;;;29.13;14.02;;;12.70;99.90;;;;;;5089367;28;20644;-88
2023/10/02 07:09:54;;;;;;;28.20;13.90;;;12.90;99.90;;;;;;5078099;28;20229;-88
2023/10/02 07:12:22;;;;;;;30.17;14.52;;;12.90;99.90;;;;;;5079736;28;20288;-89
2023/10/02 07:14:49;;;;;;;27.45;14.05;;;13.00;99.90;;;;;;5089150;28;20228;-89
2023/10/02 07:17:23;;;;;;;25.88;14.20;;;13.00;99.90;;;;;;5072353;28;20193;-88
2023/10/02 07:19:51;;;;;;;27.15;14.07;;;13.10;99.90;;;;;;5082249;28;20193;-88
2023/10/02 07:22:22;;;;;;;25.77;13.50;;;13.20;99.90;;;;;;5078567;28;20205;-88
2023/10/02 07:24:52;;;;;;;28.70;14.27;;;13.30;99.90;;;;;;5086793;28;20196;-89
2023/10/02 07:27:25;;;;;;;26.35;13.07;;;13.50;99.90;;;;;;5076030;28;20223;-88
2023/10/02 07:29:54;;;;;;;25.88;13.27;;;13.50;99.90;;;;;;5078118;28;21081;-88
2023/10/02 07:32:22;;;;;;;25.33;13.27;;;13.60;99.90;;;;;;5085811;28;20303;-89
2023/10/02 07:34:50;;;;;;;27.73;14.40;;;13.80;99.90;;;;;;5078419;28;20221;-88
2023/10/02 07:37:21;;;;;;;29.95;14.77;;;13.90;99.60;;;;;;5085985;28;20269;-88
2023/10/02 07:39:56;;;;;;;26.60;14.27;;;14.00;99.30;;;;;;5082964;28;20193;-88
2023/10/02 07:42:29;;;;;;;35.05;15.52;;;14.10;99.20;;;;;;5089980;28;20196;-88
2023/10/02 07:45:12;;;;;;;33.00;15.70;;;14.20;98.90;;;;;;5084841;28;20258;-88
2023/10/02 07:48:08;;;;;;;29.75;14.65;;;14.30;98.70;;;;;;5080409;28;20205;-88
2023/10/02 07:50:35;;;;;;;29.55;15.13;;;14.40;98.20;;;;;;5082502;28;20220;-88
2023/10/02 07:53:06;;;;;;;30.80;15.52;;;14.60;97.80;;;;;;5081040;28;20209;-88
2023/10/02 07:55:39;;;;;;;28.50;15.15;;;14.80;97.10;;;;;;5077808;28;20248;-88
2023/10/02 07:58:08;;;;;;;28.80;15.52;;;14.90;96.90;;;;;;5091298;28;20204;-88
2023/10/02 08:00:38;;;;;;;34.47;16.52;;;15.00;96.90;;;;;;5083780;28;20291;-88
2023/10/02 08:03:29;;;;;;;30.98;15.38;;;15.20;96.20;;;;;;5090306;28;20646;-88
2023/10/02 08:05:56;;;;;;;31.40;16.52;;;15.30;95.60;;;;;;5088966;28;20197;-88
2023/10/02 08:08:31;;;;;;;36.83;16.98;;;15.50;94.70;;;;;;5076751;28;20205;-88
2023/10/02 08:11:02;;;;;;;30.27;15.93;;;15.60;94.40;;;;;;5080928;28;20207;-88
2023/10/02 08:13:35;;;;;;;32.75;16.38;;;15.80;94.00;;;;;;5080561;28;20220;-88
2023/10/02 08:16:11;;;;;;;33.85;16.60;;;15.90;93.50;;;;;;5079942;28;20292;-88
2023/10/02 08:18:56;;;;;;;32.67;18.02;;;16.00;93.40;;;;;;5079596;28;20197;-88
2023/10/02 08:21:33;;;;;;;37.08;19.42;;;16.30;93.10;;;;;;5090166;28;20212;-88
2023/10/02 08:24:03;;;;;;;31.33;17.45;;;16.40;92.90;;;;;;5082791;28;20197;-88
2023/10/02 08:26:38;;;;;;;31.60;17.60;;;16.50;93.10;;;;;;5081407;28;20196;-88
2023/10/02 08:29:07;;;;;;;31.13;17.10;;;16.60;93.10;;;;;;5083287;28;20220;-89
2023/10/02 08:31:35;;;;;;;34.60;17.95;;;16.60;92.90;;;;;;5088871;28;20263;-88
2023/10/02 08:34:05;;;;;;;28.83;16.45;;;16.80;92.80;;;;;;5089255;28;20224;-88
2023/10/02 08:36:32;;;;;;;32.80;17.70;;;16.90;93.00;;;;;;5081489;28;20243;-88
2023/10/02 08:39:00;;;;;;;47.47;29.13;;;17.10;92.90;;;;;;5074936;28;20215;-88
2023/10/02 08:41:27;;;;;;;86.78;50.65;;;17.30;92.00;;;;;;5067507;28;20205;-88
2023/10/02 08:44:00;;;;;;;172.13;79.63;;;17.50;92.00;;;;;;5077986;28;20246;-88
2023/10/02 08:46:27;;;;;;;46.08;23.75;;;17.60;92.40;;;;;;5088085;28;20199;-89
2023/10/02 08:48:55;;;;;;;62.67;31.95;;;17.80;91.20;;;;;;5079023;28;20716;-88
2023/10/02 08:54:05;;;;;;;57.75;29.67;;;17.90;91.60;;;;;;5087949;28;20287;-88
2023/10/02 08:56:40;;;;;;;33.72;18.75;;;18.00;90.90;;;;;;5066621;28;20213;-88
2023/10/02 08:59:19;;;;;;;245.60;130.95;;;18.20;90.80;;;;;;5087379;28;20196;-88
2023/10/02 09:01:49;;;;;;;104.32;58.28;;;18.40;90.30;;;;;;5084448;28;20199;-89
2023/10/02 09:04:23;;;;;;;74.32;40.78;;;18.70;90.20;;;;;;5092501;28;20208;-88
2023/10/02 09:06:53;;;;;;;37.35;21.48;;;19.00;84.80;;;;;;5085645;28;20216;-86
2023/10/02 09:09:27;;;;;;;49.08;28.88;;;19.30;82.50;;;;;;5095817;28;20292;-86
2023/10/02 09:11:57;;;;;;;32.97;18.45;;;19.50;80.50;;;;;;5087801;28;20284;-86
2023/10/02 09:14:43;;;;;;;54.97;31.50;;;19.90;76.20;;;;;;5076343;28;20220;-87
2023/10/02 09:17:19;;;;;;;53.92;31.33;;;20.60;65.30;;;;;;5090522;28;20195;-86
2023/10/02 09:19:53;;;;;;;32.05;18.15;;;21.60;49.70;;;;;;5086058;28;20224;-87
2023/10/02 09:22:21;;;;;;;34.22;18.58;;;22.20;39.80;;;;;;5069061;28;20205;-83
2023/10/02 09:24:58;;;;;;;29.70;18.60;;;23.40;34.90;;;;;;5075607;28;21472;-87
2023/10/02 09:27:28;;;;;;;27.67;18.45;;;24.40;27.80;;;;;;5078216;28;20204;-87
2023/10/02 09:30:19;;;;;;;29.20;19.33;;;25.30;24.60;;;;;;5081090;28;20207;-87
2023/10/02 09:32:50;;;;;;;30.67;19.38;;;25.50;20.20;;;;;;5083712;28;20559;-87
2023/10/02 09:35:29;;;;;;;27.33;19.35;;;25.80;20.60;;;;;;5081152;28;20219;-87
2023/10/02 09:38:04;;;;;;;30.52;20.55;;;25.80;19.20;;;;;;5081122;28;20197;-87
2023/10/02 09:43:14;;;;;;;32.63;21.60;;;26.10;18.30;;;;;;5083716;28;20555;-87
2023/10/02 09:45:46;;;;;;;28.48;20.80;;;27.30;16.20;;;;;;5080979;28;20218;-87
2023/10/02 09:51:07;;;;;;;31.05;21.42;;;27.40;14.40;;;;;;5083387;28;20208;-87
2023/10/02 09:53:39;;;;;;;30.38;22.42;;;27.50;15.40;;;;;;5074365;28;20609;-87
2023/10/02 09:56:14;;;;;;;33.67;22.02;;;27.40;15.30;;;;;;5079670;28;20227;-87
2023/10/02 09:58:49;;;;;;;30.02;21.33;;;27.60;15.40;;;;;;5083259;28;20207;-87
2023/10/02 10:01:36;;;;;;;32.42;21.40;;;28.20;13.40;;;;;;5088344;28;20196;-87
2023/10/02 10:04:30;;;;;;;27.95;20.23;;;27.10;15.20;;;;;;5090781;28;20207;-87
2023/10/02 10:07:09;;;;;;;34.17;22.67;;;27.00;15.20;;;;;;5091269;28;20200;-87
2023/10/02 10:09:50;;;;;;;29.33;20.85;;;26.50;14.90;;;;;;5077458;28;20201;-87
2023/10/02 10:12:21;;;;;;;31.33;20.95;;;26.10;16.20;;;;;;5086561;28;20287;-87
2023/10/02 10:14:54;;;;;;;29.30;20.27;;;26.80;15.00;;;;;;5081554;28;20219;-87
2023/10/02 10:18:12;;;;;;;29.88;21.23;;;28.00;13.40;;;;;;5087599;28;20199;-87
2023/10/02 10:20:39;;;;;;;28.80;20.63;;;28.00;14.40;;;;;;5084582;28;20189;-87
2023/10/02 10:23:31;;;;;;;30.55;20.83;;;26.90;15.10;;;;;;5091415;28;20204;-87
2023/10/02 10:26:07;;;;;;;30.10;21.42;;;27.30;15.30;;;;;;5079138;28;20322;-87
2023/10/02 10:28:50;;;;;;;30.00;21.00;;;27.10;15.20;;;;;;5073533;28;20201;-87
2023/10/02 10:31:27;;;;;;;31.77;20.92;;;26.70;15.00;;;;;;5086762;28;20245;-87
2023/10/02 10:33:56;;;;;;;29.90;20.85;;;26.80;15.00;;;;;;5091859;28;20659;-87
2023/10/02 10:36:40;;;;;;;29.35;20.08;;;27.20;15.30;;;;;;5076710;28;20588;-87
2023/10/02 10:40:40;;;;;;;29.35;20.85;;;27.60;14.30;;;;;;5076684;28;20276;-87
2023/10/02 10:42:56;;;;;;;28.70;21.05;;;27.10;15.20;;;;;;5079481;28;20228;-87
2023/10/02 10:45:24;;;;;;;28.38;20.10;;;26.30;19.60;;;;;;5082754;28;20729;-87
2023/10/02 10:47:50;;;;;;;27.77;19.95;;;26.80;15.00;;;;;;5084394;28;20283;-87
2023/10/02 10:50:30;;;;;;;27.92;20.10;;;27.20;15.20;;;;;;5079909;28;20291;-87
2023/10/02 10:53:25;;;;;;;27.90;19.80;;;26.70;15.80;;;;;;5077940;28;20253;-87
2023/10/02 10:55:54;;;;;;;32.08;20.42;;;26.00;17.90;;;;;;5080391;28;20547;-87
2023/10/02 10:58:33;;;;;;;29.20;19.98;;;25.90;17.80;;;;;;5083213;28;20246;-87
2023/10/02 11:01:02;;;;;;;28.10;19.08;;;25.30;20.90;;;;;;5090576;28;20253;-87
2023/10/02 11:03:30;;;;;;;30.58;19.27;;;24.90;21.30;;;;;;5082828;28;20200;-86
2023/10/02 11:06:03;;;;;;;30.27;19.08;;;24.70;20.20;;;;;;5082071;28;20292;-86
2023/10/02 11:08:31;;;;;;;29.77;18.90;;;24.80;20.60;;;;;;5083618;28;20200;-86
2023/10/02 11:11:26;;;;;;;29.58;18.70;;;25.20;19.30;;;;;;5074874;28;20196;-83
2023/10/02 11:13:59;;;;;;;32.65;19.10;;;25.00;22.60;;;;;;5082117;28;20577;-86
2023/10/02 11:16:36;;;;;;;32.15;18.48;;;24.80;23.70;;;;;;5076301;28;20691;-86
2023/10/02 11:19:10;;;;;;;30.65;18.40;;;24.40;22.20;;;;;;5080962;28;20197;-86
2023/10/02 11:21:46;;;;;;;30.58;19.35;;;24.30;23.40;;;;;;5083327;28;20200;-86
2023/10/02 11:24:21;;;;;;;32.72;18.85;;;24.20;23.00;;;;;;5085896;28;20196;-86
2023/10/02 11:26:48;;;;;;;35.80;19.75;;;24.40;21.20;;;;;;5080953;28;20197;-86
2023/10/02 11:29:20;;;;;;;30.73;18.40;;;24.30;20.00;;;;;;5091601;28;20269;-86
2023/10/02 11:32:18;;;;;;;30.20;18.20;;;24.40;20.90;;;;;;5076271;28;20197;-86
2023/10/02 11:34:44;;;;;;;32.78;18.98;;;24.50;19.00;;;;;;5078603;28;20195;-86
2023/10/02 11:37:14;;;;;;;33.55;19.05;;;24.50;19.60;;;;;;5084714;28;20196;-85
2023/10/02 11:39:41;;;;;;;29.88;18.73;;;24.60;18.90;;;;;;5073557;28;20333;-86
2023/10/02 11:42:08;;;;;;;36.65;20.20;;;24.50;19.50;;;;;;5083243;28;20284;-86
2023/10/02 11:44:35;;;;;;;36.67;20.35;;;24.40;18.50;;;;;;5080675;28;20201;-85
2023/10/02 11:47:01;;;;;;;34.92;19.85;;;24.20;19.00;;;;;;5088684;28;20811;-85
2023/10/02 11:49:29;;;;;;;31.92;19.48;;;24.10;19.20;;;;;;5078544;28;20197;-85
2023/10/02 11:52:00;;;;;;;32.00;19.13;;;24.20;19.90;;;;;;5072312;28;20220;-85
2023/10/02 11:54:28;;;;;;;33.95;19.80;;;24.20;20.90;;;;;;5072854;28;20193;-85
2023/10/02 11:56:55;;;;;;;31.20;19.13;;;24.30;20.80;;;;;;5076366;28;20221;-86
2023/10/02 11:59:22;;;;;;;32.83;19.77;;;24.30;20.00;;;;;;5077634;28;20588;-86
2023/10/02 12:01:49;;;;;;;32.70;20.08;;;24.30;18.80;;;;;;5078003;28;20199;-86
2023/10/02 12:04:16;;;;;;;33.42;19.75;;;24.20;19.60;;;;;;5074300;28;20204;-85
2023/10/02 12:06:43;;;;;;;33.47;19.45;;;24.20;19.60;;;;;;5073976;28;20287;-86
2023/10/02 12:09:17;;;;;;;33.55;19.88;;;24.10;18.80;;;;;;5072853;28;20924;-86
2023/10/02 12:11:45;;;;;;;31.23;19.40;;;24.00;19.00;;;;;;5078797;28;20219;-85
2023/10/02 12:14:12;;;;;;;36.03;20.00;;;24.10;20.20;;;;;;5078507;28;20201;-85
2023/10/02 12:16:39;;;;;;;34.45;19.98;;;24.10;19.20;;;;;;5081825;28;20226;-86
2023/10/02 12:19:08;;;;;;;33.45;19.30;;;24.20;19.60;;;;;;5079583;28;20562;-85
2023/10/02 12:21:36;;;;;;;34.75;19.67;;;24.30;20.30;;;;;;5080762;28;20288;-86
2023/10/02 12:24:03;;;;;;;30.20;18.38;;;24.30;19.50;;;;;;5078994;28;20295;-85
2023/10/02 12:26:30;;;;;;;29.58;17.95;;;24.40;19.90;;;;;;5079785;28;20216;-86
2023/10/02 12:29:00;;;;;;;32.50;19.40;;;24.30;19.60;;;;;;5075548;28;20563;-86
2023/10/02 12:31:30;;;;;;;33.50;19.08;;;24.40;18.80;;;;;;5086958;28;20213;-86
2023/10/02 12:33:57;;;;;;;31.58;19.60;;;24.40;18.90;;;;;;5075877;28;20234;-86
2023/10/02 12:36:26;;;;;;;32.00;19.13;;;24.30;18.80;;;;;;5075621;28;20227;-85
2023/10/02 12:38:54;;;;;;;32.58;19.30;;;24.40;18.80;;;;;;5077717;28;20197;-86
2023/10/02 12:41:22;;;;;;;31.25;18.52;;;24.50;19.00;;;;;;5087297;28;20575;-85
2023/10/02 12:43:55;;;;;;;34.20;20.25;;;24.40;19.00;;;;;;5074389;28;20204;-86
2023/10/02 12:46:25;;;;;;;31.42;19.17;;;24.40;18.40;;;;;;5075448;28;20209;-85
2023/10/02 12:48:52;;;;;;;32.42;19.48;;;24.40;19.70;;;;;;5076085;28;20197;-85
2023/10/02 12:51:19;;;;;;;34.45;19.90;;;24.30;19.00;;;;;;5074636;28;20691;-86
2023/10/02 12:53:46;;;;;;;35.20;19.90;;;24.30;17.40;;;;;;5082771;28;20188;-86
2023/10/02 12:56:18;;;;;;;34.92;20.13;;;24.20;17.90;;;;;;5080064;28;20221;-86
2023/10/02 12:58:48;;;;;;;36.90;19.92;;;24.20;18.20;;;;;;5078978;28;20870;-86
2023/10/02 13:01:15;;;;;;;35.88;19.83;;;24.10;18.10;;;;;;5079404;28;20204;-85
2023/10/02 13:03:44;;;;;;;35.28;20.00;;;24.00;19.00;;;;;;5077613;28;20941;-86
2023/10/02 13:06:12;;;;;;;32.88;19.50;;;24.10;18.90;;;;;;5085649;28;20200;-86
2023/10/02 13:08:41;;;;;;;32.72;20.05;;;24.20;19.30;;;;;;5074515;28;20189;-86
2023/10/02 13:11:12;;;;;;;33.30;19.35;;;24.20;19.70;;;;;;5077325;28;20205;-86
2023/10/02 13:13:42;;;;;;;34.03;19.58;;;24.30;18.30;;;;;;5085317;28;20200;-86
2023/10/02 13:16:09;;;;;;;34.53;19.27;;;24.20;18.40;;;;;;5082925;28;20227;-86
2023/10/02 13:18:37;;;;;;;34.83;20.10;;;24.10;18.30;;;;;;5078051;28;20198;-86
2023/10/02 13:21:08;;;;;;;38.80;20.70;;;24.20;18.50;;;;;;5076849;28;20193;-86
2023/10/02 13:23:36;;;;;;;34.53;20.25;;;24.10;19.70;;;;;;5073456;28;20212;-86
2023/10/02 13:26:05;;;;;;;34.63;20.17;;;24.10;19.50;;;;;;5072767;28;20251;-85